Time;durP1;ratioP1;P1;durP2;ratioP2;P2;SDS_P1;SDS_P2;PMS_P1;PMS_P2;Temp;Humidity;BMP_temperature;BMP_pressure;BME280_temperature;BME280_humidity;BME280_pressure;Samples;Min_cycle;Max_cycle;Signal;HPM_P1;HPM_P2
2022/03/13 18:00:41;;;;;;;;;;;;;;;;;;5083640;27;19930;-67
2022/03/13 18:03:07;;;;;;;;;;;;;;;;;;5082519;28;19916;-64
2022/03/13 18:05:34;;;;;;;;;;;;;;;;;;5091066;28;19924;-65
2022/03/13 18:10:14;;;;;;;;;;;;;;;;;;5025859;28;6724;-64
2022/03/13 18:12:39;;;;;;;;;;;;;;;;;;4996381;28;12250;-64
2022/03/13 18:15:05;;;;;;;;;;;;;;;;;;5005665;28;8950;-64
2022/03/13 18:17:34;;;;;;;;;;;;;;;;;;4970621;28;103082;-64
2022/03/13 18:21:43;;;;;;;;;;;;;;;;;;5088380;27;6643;-64
2022/03/13 19:25:52;;;;;;;;;;;;;;;17.05;45.70;94086.28;5070665;28;6626;-69
2022/03/13 19:28:20;;;;;;;;;;;;;;;16.78;46.51;94100.72;5013638;28;7032;-64
2022/03/13 19:30:46;;;;;;;;;;;;;;;16.48;47.14;94097.06;5026319;28;7032;-63
2022/03/13 19:33:12;;;;;;;;;;;;;;;16.34;46.79;94091.50;5014687;28;8356;-63
2022/03/13 19:35:38;;;;;;;;;;;;;;;16.73;47.20;94106.78;5022584;28;9061;-72
2022/03/13 19:45:47;;;;;;;;;;;;;;;20.55;49.51;94030.25;5085755;27;6730;-42
2022/03/13 19:48:13;;;;;;;;;;;;;;;21.30;47.73;94032.44;5066077;28;7988;-45
2022/03/13 19:50:39;;;;;;;;;;;;;;;21.88;46.30;94036.41;5053152;28;8430;-42
2022/03/13 19:53:06;;;;;;;;;;;;;;;22.34;44.84;94033.94;5025670;28;8436;-42
2022/03/13 19:55:32;;;;;;;;;;;;;;;22.71;43.94;94044.69;5065001;28;7251;-41
2022/03/13 19:57:58;;;;;;;;;;;;;;;23.01;43.81;94046.38;5006682;28;88339;-39
2022/03/13 20:00:24;;;;;;;;;;;;;;;23.29;43.15;94051.06;4990003;28;9236;-43
2022/03/13 20:05:19;;;;;;;;;;;;;;;23.81;41.78;94052.66;5056047;28;12081;-38
2022/03/13 20:07:45;;;;;;;;;;;;;;;23.87;41.27;94053.38;4986374;28;21366;-40
2022/03/13 20:10:15;;;;;;;;;;;;;;;23.94;40.54;94058.31;5033848;28;13016;-40
2022/03/13 20:12:43;;;;;;;;;;;;;;;23.97;40.58;94053.78;5041506;28;7374;-43
2022/03/13 20:15:13;;;;;;;;;;;;;;;24.09;40.85;94071.75;5020672;28;9478;-43
2022/03/13 20:17:39;;;;;;;;;;;;;;;24.13;40.59;94074.22;5047379;28;7028;-40
2022/03/13 20:20:10;;;;;;;;;;;;;;;24.20;39.89;94074.44;5016254;28;9246;-41
2022/03/13 20:22:37;;;;;;;;;;;;;;;24.27;40.60;94082.13;5025438;28;7118;-40
2022/03/13 20:25:05;;;;;;;;;;;;;;;24.30;40.21;94081.09;4998082;28;65222;-41
2022/03/13 20:27:32;;;;;;;;;;;;;;;24.32;40.00;94083.34;5006313;28;9656;-41
2022/03/13 20:29:57;;;;;;;;;;;;;;;24.40;39.86;94089.81;5011765;28;7129;-41
2022/03/13 20:32:24;;;;;;;;;;;;;;;24.42;40.17;94092.78;5008603;28;7054;-40
2022/03/13 20:34:51;;;;;;;;;;;;;;;24.45;39.87;94097.25;5016352;28;8003;-42
2022/03/13 20:37:17;;;;;;;;;;;;;;;24.47;39.82;94094.72;5000994;28;9222;-42
2022/03/13 20:39:44;;;;;;;;;;;;;;;24.52;39.79;94107.69;4980966;28;7278;-43
2022/03/13 20:42:10;;;;;;;;;;;;;;;24.52;39.25;94108.47;4969813;28;9217;-40
2022/03/13 20:44:38;;;;;;;;;;;;;;;24.54;39.43;94111.44;5012053;28;7254;-41
2022/03/13 20:47:05;;;;;;;;;;;;;;;24.56;39.31;94119.91;5005652;28;9451;-41
2022/03/13 20:49:32;;;;;;;;;;;;;;;24.55;39.43;94109.44;5008586;28;8552;-42
2022/03/13 20:51:58;;;;;;;;;;;;;;;24.60;38.92;94122.38;5003540;28;7990;-45
2022/03/13 20:54:24;;;;;;;;;;;;;;;24.58;39.49;94114.66;5015100;28;7272;-41
2022/03/13 20:56:58;;;;;;;;;;;;;;;24.57;39.15;94115.19;5004579;28;7066;-40
2022/03/13 20:59:25;;;;;;;;;;;;;;;24.60;39.21;94114.88;4993299;28;7213;-43
2022/03/13 21:02:09;;;;;;;;;;;;;;;24.59;39.17;94124.41;5004445;28;7235;-41
2022/03/13 21:04:42;;;;;;;;;;;;;;;24.61;39.33;94121.91;5009041;28;8711;-43
2022/03/13 21:07:16;;;;;;;;;;;;;;;24.60;39.24;94108.63;4967681;28;7080;-41
2022/03/13 21:09:42;;;;;;;;;;;;;;;24.63;38.87;94113.88;4992051;28;9333;-41
2022/03/13 21:12:18;;;;;;;;;;;;;;;24.63;39.13;94108.38;5004995;28;7258;-41
2022/03/13 21:14:46;;;;;;;;;;;;;;;24.64;39.07;94106.38;4998803;28;7157;-40
2022/03/13 21:17:20;;;;;;;;;;;;;;;24.62;39.03;94111.66;4961670;28;7405;-40
2022/03/13 21:19:46;;;;;;;;;;;;;;;24.62;39.20;94109.63;4981907;28;7090;-41
2022/03/13 21:22:23;;;;;;;;;;;;;;;24.65;38.68;94108.63;4967288;28;6962;-40
2022/03/13 21:24:55;;;;;;;;;;;;;;;24.60;38.55;94092.91;4980884;28;7253;-41
2022/03/13 21:27:23;;;;;;;;;;;;;;;24.63;38.38;94105.63;4972612;28;7015;-40
2022/03/13 21:29:50;;;;;;;;;;;;;;;24.61;38.75;94094.41;4979159;28;6861;-40
2022/03/13 21:32:20;;;;;;;;;;;;;;;24.63;39.02;94113.88;4987470;28;7015;-42
2022/03/13 21:34:49;;;;;;;;;;;;;;;24.60;38.62;94109.38;4961571;28;8929;-41
2022/03/13 21:37:15;;;;;;;;;;;;;;;24.65;38.62;94124.38;4959030;28;9146;-40
2022/03/13 21:39:41;;;;;;;;;;;;;;;24.63;38.69;94129.63;4935127;28;7337;-41
2022/03/13 21:42:07;;;;;;;;;;;;;;;24.62;38.11;94139.88;4990057;28;7225;-40
2022/03/13 21:44:33;;;;;;;;;;;;;;;24.60;38.26;94136.13;4969934;28;7275;-40
2022/03/13 21:47:01;;;;;;;;;;;;;;;24.57;38.28;94137.94;4946973;28;7459;-42
2022/03/13 21:49:45;;;;;;;;;;;;;;;24.59;38.05;94151.16;4958426;28;7017;-40
2022/03/13 21:52:11;;;;;;;;;;;;;;;24.58;37.95;94144.16;4987536;28;7226;-40
2022/03/13 21:54:44;;;;;;;;;;;;;;;24.59;37.32;94148.41;4959311;28;9312;-42
2022/03/13 21:57:12;;;;;;;;;;;;;;;24.58;38.13;94150.41;4959086;28;7260;-41
2022/03/13 21:59:40;;;;;;;;;;;;;;;24.60;38.18;94152.63;4959221;28;9042;-40
2022/03/13 22:02:19;;;;;;;;;;;;;;;24.58;37.65;94152.41;4991954;28;7457;-40
2022/03/13 22:04:45;;;;;;;;;;;;;;;24.57;37.63;94159.94;4952682;28;7319;-41
2022/03/13 22:07:15;;;;;;;;;;;;;;;24.59;37.55;94162.91;4977219;28;7588;-40
2022/03/13 22:09:43;;;;;;;;;;;;;;;24.57;37.63;94170.16;4956868;28;8797;-41
2022/03/13 22:12:11;;;;;;;;;;;;;;;24.58;37.47;94172.41;4986240;28;7938;-41
2022/03/13 22:14:38;;;;;;;;;;;;;;;24.52;37.49;94177.19;4955528;28;9895;-40
2022/03/13 22:17:04;;;;;;;;;;;;;;;24.56;37.48;94180.41;4950399;28;8276;-40
2022/03/13 22:19:32;;;;;;;;;;;;;;;24.54;37.51;94184.91;4965371;28;9740;-40
2022/03/13 22:21:59;;;;;;;;;;;;;;;24.56;37.16;94194.16;4953016;28;7314;-41
2022/03/13 22:24:27;;;;;;;;;;;;;;;24.55;37.47;94194.69;4978858;28;7055;-40
2022/03/13 22:26:56;;;;;;;;;;;;;;;24.55;37.42;94200.94;4978718;28;7006;-40
2022/03/13 22:29:23;;;;;;;;;;;;;;;24.56;37.32;94196.91;4971299;28;6928;-41
2022/03/13 22:31:49;;;;;;;;;;;;;;;24.54;37.87;94199.44;4982519;28;7597;-41
2022/03/13 22:34:15;;;;;;;;;;;;;;;24.55;37.48;94202.94;4938200;28;7215;-41
2022/03/13 22:36:41;;;;;;;;;;;;;;;24.55;37.33;94205.69;4957583;28;7322;-42
2022/03/13 22:39:10;;;;;;;;;;;;;;;24.54;37.48;94212.41;4987961;28;7145;-42
2022/03/13 22:41:38;;;;;;;;;;;;;;;24.51;37.33;94216.94;4939177;28;7672;-40
2022/03/13 22:44:06;;;;;;;;;;;;;;;24.52;37.40;94223.19;4947988;28;7906;-40
2022/03/13 22:46:38;;;;;;;;;;;;;;;24.51;37.20;94238.19;4960433;28;6991;-40
2022/03/13 22:49:06;;;;;;;;;;;;;;;24.51;37.13;94252.66;4950853;28;7464;-40
2022/03/13 22:51:32;;;;;;;;;;;;;;;24.51;36.96;94266.41;4937958;28;9186;-40
2022/03/13 22:53:58;;;;;;;;;;;;;;;24.51;37.13;94277.41;4979619;28;6980;-40
2022/03/13 22:56:25;;;;;;;;;;;;;;;24.48;36.87;94286.69;4971253;28;8262;-41
2022/03/13 22:58:51;;;;;;;;;;;;;;;24.50;37.17;94292.44;4978324;28;7210;-41
2022/03/13 23:01:22;;;;;;;;;;;;;;;24.51;36.61;94318.66;4961916;28;7627;-41
2022/03/13 23:03:48;;;;;;;;;;;;;;;24.51;37.11;94331.69;4959705;28;7318;-41
2022/03/13 23:06:14;;;;;;;;;;;;;;;24.51;37.35;94340.66;4950478;28;6996;-40
2022/03/13 23:08:41;;;;;;;;;;;;;;;24.51;36.99;94339.94;4976898;28;7046;-41
2022/03/13 23:11:07;;;;;;;;;;;;;;;24.50;36.71;94355.66;4967158;28;7113;-42
2022/03/13 23:14:12;;;;;;;;;;;;;;;24.50;36.89;94369.41;4957532;28;9235;-42
2022/03/13 23:16:47;;;;;;;;;;;;;;;24.49;37.08;94372.69;4940928;28;7191;-40
2022/03/13 23:19:16;;;;;;;;;;;;;;;24.48;36.89;94382.91;4953454;28;7264;-40
2022/03/13 23:21:45;;;;;;;;;;;;;;;24.46;36.76;94384.66;4938535;28;7269;-40
2022/03/13 23:24:18;;;;;;;;;;;;;;;24.44;36.27;94389.94;4962355;28;8289;-40
2022/03/13 23:27:20;;;;;;;;;;;;;;;24.48;36.73;94406.91;4941936;28;7147;-40
2022/03/13 23:29:48;;;;;;;;;;;;;;;24.48;36.67;94409.66;4947199;28;9133;-40
2022/03/13 23:32:17;;;;;;;;;;;;;;;24.45;36.16;94416.16;4947708;28;7290;-41
2022/03/13 23:35:03;;;;;;;;;;;;;;;24.43;35.22;94424.91;4924670;28;7291;-40
2022/03/13 23:37:29;;;;;;;;;;;;;;;24.43;36.40;94424.16;4949559;28;7119;-40
2022/03/13 23:39:55;;;;;;;;;;;;;;;24.45;36.68;94449.91;4941911;28;7362;-40
2022/03/13 23:42:40;;;;;;;;;;;;;;;24.44;36.62;94453.91;4920843;28;9242;-40
2022/03/13 23:45:16;;;;;;;;;;;;;;;24.42;35.86;94459.16;4959982;28;8413;-40
2022/03/13 23:47:42;;;;;;;;;;;;;;;24.42;35.51;94481.16;4968111;28;9107;-40
2022/03/13 23:50:38;;;;;;;;;;;;;;;24.44;35.51;94508.91;4939131;28;8220;-42
2022/03/13 23:53:06;;;;;;;;;;;;;;;24.43;35.80;94515.63;4932735;28;9603;-40
2022/03/13 23:55:34;;;;;;;;;;;;;;;24.41;35.92;94522.88;4908886;29;7307;-40
2022/03/13 23:58:00;;;;;;;;;;;;;;;24.42;34.59;94538.91;4911414;28;7506;-42
